sensor_id;sensor_type;location;lat;lon;timestamp;P1;durP1;ratioP1;P2;durP2;ratioP2
59872;SDS011;50750;51.636;4.948;2023-04-06T00:02:08;6.10;;;3.80;;
59872;SDS011;50750;51.636;4.948;2023-04-06T00:04:35;6.60;;;3.90;;
59872;SDS011;50750;51.636;4.948;2023-04-06T00:07:02;6.20;;;4.10;;
59872;SDS011;50750;51.636;4.948;2023-04-06T00:09:28;6.00;;;4.10;;
59872;SDS011;50750;51.636;4.948;2023-04-06T00:11:55;5.70;;;3.90;;
59872;SDS011;50750;51.636;4.948;2023-04-06T00:14:22;6.20;;;3.80;;
59872;SDS011;50750;51.636;4.948;2023-04-06T00:16:49;5.80;;;3.70;;
59872;SDS011;50750;51.636;4.948;2023-04-06T00:19:15;6.20;;;3.90;;
59872;SDS011;50750;51.636;4.948;2023-04-06T00:21:42;6.70;;;3.90;;
59872;SDS011;50750;51.636;4.948;2023-04-06T00:24:09;5.60;;;3.80;;
59872;SDS011;50750;51.636;4.948;2023-04-06T00:26:36;6.30;;;3.90;;
59872;SDS011;50750;51.636;4.948;2023-04-06T00:29:02;6.80;;;3.80;;
59872;SDS011;50750;51.636;4.948;2023-04-06T00:31:29;5.80;;;3.90;;
59872;SDS011;50750;51.636;4.948;2023-04-06T00:33:55;6.00;;;3.90;;
59872;SDS011;50750;51.636;4.948;2023-04-06T00:36:24;6.40;;;3.80;;
59872;SDS011;50750;51.636;4.948;2023-04-06T00:38:51;6.00;;;4.10;;
59872;SDS011;50750;51.636;4.948;2023-04-06T00:41:18;6.80;;;4.10;;
59872;SDS011;50750;51.636;4.948;2023-04-06T00:43:44;5.80;;;4.10;;
59872;SDS011;50750;51.636;4.948;2023-04-06T00:46:11;6.90;;;4.30;;
59872;SDS011;50750;51.636;4.948;2023-04-06T00:48:37;6.90;;;4.10;;
59872;SDS011;50750;51.636;4.948;2023-04-06T00:51:05;6.70;;;4.00;;
59872;SDS011;50750;51.636;4.948;2023-04-06T00:53:31;5.60;;;3.70;;
59872;SDS011;50750;51.636;4.948;2023-04-06T00:55:58;7.20;;;4.20;;
59872;SDS011;50750;51.636;4.948;2023-04-06T00:58:25;5.40;;;3.70;;
59872;SDS011;50750;51.636;4.948;2023-04-06T01:00:52;5.50;;;3.80;;
59872;SDS011;50750;51.636;4.948;2023-04-06T01:03:18;6.50;;;4.10;;
59872;SDS011;50750;51.636;4.948;2023-04-06T01:05:45;6.10;;;3.60;;
59872;SDS011;50750;51.636;4.948;2023-04-06T01:08:12;5.30;;;3.70;;
59872;SDS011;50750;51.636;4.948;2023-04-06T01:10:38;7.60;;;4.10;;
59872;SDS011;50750;51.636;4.948;2023-04-06T01:13:05;5.40;;;3.60;;
59872;SDS011;50750;51.636;4.948;2023-04-06T01:15:32;5.70;;;3.60;;
59872;SDS011;50750;51.636;4.948;2023-04-06T01:18:01;5.50;;;3.50;;
59872;SDS011;50750;51.636;4.948;2023-04-06T01:20:28;8.60;;;4.10;;
59872;SDS011;50750;51.636;4.948;2023-04-06T01:22:55;6.40;;;3.90;;
59872;SDS011;50750;51.636;4.948;2023-04-06T01:25:21;6.00;;;4.00;;
59872;SDS011;50750;51.636;4.948;2023-04-06T01:27:48;6.00;;;4.00;;
59872;SDS011;50750;51.636;4.948;2023-04-06T01:30:14;7.10;;;4.30;;
59872;SDS011;50750;51.636;4.948;2023-04-06T01:32:42;5.50;;;3.60;;
59872;SDS011;50750;51.636;4.948;2023-04-06T01:35:09;5.90;;;4.10;;
59872;SDS011;50750;51.636;4.948;2023-04-06T01:37:35;5.80;;;4.00;;
59872;SDS011;50750;51.636;4.948;2023-04-06T01:40:03;7.30;;;3.90;;
59872;SDS011;50750;51.636;4.948;2023-04-06T01:42:30;5.30;;;3.90;;
59872;SDS011;50750;51.636;4.948;2023-04-06T01:44:57;5.70;;;4.10;;
59872;SDS011;50750;51.636;4.948;2023-04-06T01:47:23;5.90;;;3.90;;
59872;SDS011;50750;51.636;4.948;2023-04-06T01:49:50;7.20;;;4.10;;
59872;SDS011;50750;51.636;4.948;2023-04-06T01:52:16;5.60;;;4.00;;
59872;SDS011;50750;51.636;4.948;2023-04-06T01:54:43;5.90;;;4.10;;
59872;SDS011;50750;51.636;4.948;2023-04-06T01:57:10;5.40;;;4.00;;
59872;SDS011;50750;51.636;4.948;2023-04-06T01:59:36;6.60;;;4.60;;
59872;SDS011;50750;51.636;4.948;2023-04-06T02:02:03;6.70;;;4.40;;
59872;SDS011;50750;51.636;4.948;2023-04-06T02:04:30;6.30;;;4.10;;
59872;SDS011;50750;51.636;4.948;2023-04-06T02:06:56;6.20;;;4.00;;
59872;SDS011;50750;51.636;4.948;2023-04-06T02:09:23;5.50;;;4.10;;
59872;SDS011;50750;51.636;4.948;2023-04-06T02:11:49;6.80;;;4.30;;
59872;SDS011;50750;51.636;4.948;2023-04-06T02:14:16;7.00;;;4.20;;
59872;SDS011;50750;51.636;4.948;2023-04-06T02:16:42;6.10;;;4.10;;
59872;SDS011;50750;51.636;4.948;2023-04-06T02:19:09;6.80;;;4.20;;
59872;SDS011;50750;51.636;4.948;2023-04-06T02:21:35;6.40;;;4.10;;
59872;SDS011;50750;51.636;4.948;2023-04-06T02:24:02;6.20;;;4.30;;
59872;SDS011;50750;51.636;4.948;2023-04-06T02:26:29;7.20;;;4.40;;
59872;SDS011;50750;51.636;4.948;2023-04-06T02:28:55;6.70;;;4.40;;
59872;SDS011;50750;51.636;4.948;2023-04-06T02:31:22;6.60;;;4.30;;
59872;SDS011;50750;51.636;4.948;2023-04-06T02:33:48;5.60;;;3.80;;
59872;SDS011;50750;51.636;4.948;2023-04-06T02:36:15;5.60;;;4.20;;
59872;SDS011;50750;51.636;4.948;2023-04-06T02:38:42;7.80;;;4.40;;
59872;SDS011;50750;51.636;4.948;2023-04-06T02:41:09;6.20;;;4.30;;
59872;SDS011;50750;51.636;4.948;2023-04-06T02:43:35;7.70;;;4.40;;
59872;SDS011;50750;51.636;4.948;2023-04-06T02:46:02;7.00;;;4.50;;
59872;SDS011;50750;51.636;4.948;2023-04-06T02:48:28;5.60;;;4.00;;
59872;SDS011;50750;51.636;4.948;2023-04-06T02:50:55;7.60;;;4.60;;
59872;SDS011;50750;51.636;4.948;2023-04-06T02:53:21;6.60;;;4.60;;
59872;SDS011;50750;51.636;4.948;2023-04-06T02:55:48;6.30;;;4.40;;
59872;SDS011;50750;51.636;4.948;2023-04-06T02:58:15;6.90;;;4.40;;
59872;SDS011;50750;51.636;4.948;2023-04-06T03:00:41;8.40;;;4.60;;
59872;SDS011;50750;51.636;4.948;2023-04-06T03:03:08;6.20;;;4.00;;
59872;SDS011;50750;51.636;4.948;2023-04-06T03:05:34;7.70;;;4.60;;
59872;SDS011;50750;51.636;4.948;2023-04-06T03:08:01;7.20;;;4.60;;
59872;SDS011;50750;51.636;4.948;2023-04-06T03:10:28;8.30;;;4.40;;
59872;SDS011;50750;51.636;4.948;2023-04-06T03:12:54;7.60;;;4.60;;
59872;SDS011;50750;51.636;4.948;2023-04-06T03:15:21;7.10;;;4.50;;
59872;SDS011;50750;51.636;4.948;2023-04-06T03:17:47;7.00;;;4.50;;
59872;SDS011;50750;51.636;4.948;2023-04-06T03:20:14;8.30;;;4.60;;
59872;SDS011;50750;51.636;4.948;2023-04-06T03:22:41;7.30;;;4.80;;
59872;SDS011;50750;51.636;4.948;2023-04-06T03:25:08;7.20;;;4.50;;
59872;SDS011;50750;51.636;4.948;2023-04-06T03:27:34;8.20;;;4.90;;
59872;SDS011;50750;51.636;4.948;2023-04-06T03:30:02;6.90;;;4.50;;
59872;SDS011;50750;51.636;4.948;2023-04-06T03:32:29;7.50;;;4.80;;
59872;SDS011;50750;51.636;4.948;2023-04-06T03:34:55;7.10;;;4.80;;
59872;SDS011;50750;51.636;4.948;2023-04-06T03:37:22;8.60;;;5.30;;
59872;SDS011;50750;51.636;4.948;2023-04-06T03:39:48;6.60;;;4.80;;
59872;SDS011;50750;51.636;4.948;2023-04-06T03:42:15;7.90;;;5.10;;
59872;SDS011;50750;51.636;4.948;2023-04-06T03:44:41;7.20;;;5.00;;
59872;SDS011;50750;51.636;4.948;2023-04-06T03:47:08;6.60;;;4.70;;
59872;SDS011;50750;51.636;4.948;2023-04-06T03:49:34;7.00;;;4.80;;
59872;SDS011;50750;51.636;4.948;2023-04-06T03:52:01;7.70;;;4.80;;
59872;SDS011;50750;51.636;4.948;2023-04-06T03:54:28;7.70;;;5.50;;
59872;SDS011;50750;51.636;4.948;2023-04-06T03:56:54;6.20;;;4.30;;
59872;SDS011;50750;51.636;4.948;2023-04-06T03:59:21;6.80;;;4.90;;
59872;SDS011;50750;51.636;4.948;2023-04-06T04:01:48;7.40;;;5.20;;
59872;SDS011;50750;51.636;4.948;2023-04-06T04:04:14;6.90;;;4.80;;
59872;SDS011;50750;51.636;4.948;2023-04-06T04:06:41;7.00;;;4.80;;
59872;SDS011;50750;51.636;4.948;2023-04-06T04:09:08;7.00;;;5.00;;
59872;SDS011;50750;51.636;4.948;2023-04-06T04:11:34;7.00;;;4.90;;
59872;SDS011;50750;51.636;4.948;2023-04-06T04:14:01;7.70;;;4.80;;
59872;SDS011;50750;51.636;4.948;2023-04-06T04:16:28;7.00;;;4.60;;
59872;SDS011;50750;51.636;4.948;2023-04-06T04:18:54;7.20;;;4.90;;
59872;SDS011;50750;51.636;4.948;2023-04-06T04:21:21;6.90;;;4.70;;
59872;SDS011;50750;51.636;4.948;2023-04-06T04:23:47;7.20;;;5.00;;
59872;SDS011;50750;51.636;4.948;2023-04-06T04:26:14;7.50;;;4.80;;
59872;SDS011;50750;51.636;4.948;2023-04-06T04:28:40;7.30;;;4.90;;
59872;SDS011;50750;51.636;4.948;2023-04-06T04:31:07;7.80;;;5.00;;
59872;SDS011;50750;51.636;4.948;2023-04-06T04:33:33;8.90;;;5.40;;
59872;SDS011;50750;51.636;4.948;2023-04-06T04:36:04;8.70;;;5.20;;
59872;SDS011;50750;51.636;4.948;2023-04-06T04:38:30;6.90;;;5.10;;
59872;SDS011;50750;51.636;4.948;2023-04-06T04:40:57;7.40;;;4.80;;
59872;SDS011;50750;51.636;4.948;2023-04-06T04:43:23;8.30;;;5.10;;
59872;SDS011;50750;51.636;4.948;2023-04-06T04:45:50;6.80;;;4.50;;
59872;SDS011;50750;51.636;4.948;2023-04-06T04:48:16;8.40;;;5.50;;
59872;SDS011;50750;51.636;4.948;2023-04-06T04:50:43;7.10;;;5.10;;
59872;SDS011;50750;51.636;4.948;2023-04-06T04:53:09;7.00;;;5.20;;
59872;SDS011;50750;51.636;4.948;2023-04-06T04:55:36;7.90;;;5.00;;
59872;SDS011;50750;51.636;4.948;2023-04-06T04:58:03;8.00;;;4.80;;
59872;SDS011;50750;51.636;4.948;2023-04-06T05:00:29;6.70;;;4.80;;
59872;SDS011;50750;51.636;4.948;2023-04-06T05:02:56;7.40;;;4.90;;
59872;SDS011;50750;51.636;4.948;2023-04-06T05:05:23;8.10;;;4.80;;
59872;SDS011;50750;51.636;4.948;2023-04-06T05:07:49;7.30;;;4.40;;
59872;SDS011;50750;51.636;4.948;2023-04-06T05:10:16;7.30;;;5.00;;
59872;SDS011;50750;51.636;4.948;2023-04-06T05:12:43;7.80;;;5.00;;
59872;SDS011;50750;51.636;4.948;2023-04-06T05:15:10;7.90;;;5.20;;
59872;SDS011;50750;51.636;4.948;2023-04-06T05:17:36;8.30;;;5.30;;
59872;SDS011;50750;51.636;4.948;2023-04-06T05:20:04;9.30;;;5.20;;
59872;SDS011;50750;51.636;4.948;2023-04-06T05:22:31;9.30;;;5.00;;
59872;SDS011;50750;51.636;4.948;2023-04-06T05:24:58;8.10;;;4.90;;
59872;SDS011;50750;51.636;4.948;2023-04-06T05:27:24;8.10;;;5.30;;
59872;SDS011;50750;51.636;4.948;2023-04-06T05:29:51;7.90;;;5.20;;
59872;SDS011;50750;51.636;4.948;2023-04-06T05:32:17;7.30;;;4.90;;
59872;SDS011;50750;51.636;4.948;2023-04-06T05:34:48;7.80;;;4.80;;
59872;SDS011;50750;51.636;4.948;2023-04-06T05:37:18;7.90;;;5.50;;
59872;SDS011;50750;51.636;4.948;2023-04-06T05:39:45;7.10;;;4.70;;
59872;SDS011;50750;51.636;4.948;2023-04-06T05:42:12;7.90;;;5.50;;
59872;SDS011;50750;51.636;4.948;2023-04-06T05:44:38;9.00;;;4.70;;
59872;SDS011;50750;51.636;4.948;2023-04-06T05:47:05;7.00;;;5.20;;
59872;SDS011;50750;51.636;4.948;2023-04-06T05:49:31;8.20;;;5.00;;
59872;SDS011;50750;51.636;4.948;2023-04-06T05:51:58;9.70;;;5.20;;
59872;SDS011;50750;51.636;4.948;2023-04-06T05:54:24;16.60;;;11.30;;
59872;SDS011;50750;51.636;4.948;2023-04-06T05:56:51;14.70;;;10.30;;
59872;SDS011;50750;51.636;4.948;2023-04-06T05:59:18;14.10;;;9.20;;
59872;SDS011;50750;51.636;4.948;2023-04-06T06:01:44;15.70;;;10.10;;
59872;SDS011;50750;51.636;4.948;2023-04-06T06:04:11;13.20;;;8.60;;
59872;SDS011;50750;51.636;4.948;2023-04-06T06:06:37;13.10;;;9.20;;
59872;SDS011;50750;51.636;4.948;2023-04-06T06:09:04;13.50;;;9.00;;
59872;SDS011;50750;51.636;4.948;2023-04-06T06:11:31;12.10;;;8.60;;
59872;SDS011;50750;51.636;4.948;2023-04-06T06:13:59;12.90;;;9.20;;
59872;SDS011;50750;51.636;4.948;2023-04-06T06:16:25;16.70;;;9.00;;
59872;SDS011;50750;51.636;4.948;2023-04-06T06:18:52;12.50;;;8.30;;
59872;SDS011;50750;51.636;4.948;2023-04-06T06:21:19;12.80;;;8.30;;
59872;SDS011;50750;51.636;4.948;2023-04-06T06:23:45;13.90;;;8.40;;
59872;SDS011;50750;51.636;4.948;2023-04-06T06:26:14;12.00;;;7.80;;
59872;SDS011;50750;51.636;4.948;2023-04-06T06:28:41;12.60;;;8.60;;
59872;SDS011;50750;51.636;4.948;2023-04-06T06:31:08;12.50;;;8.40;;
59872;SDS011;50750;51.636;4.948;2023-04-06T06:33:34;12.70;;;8.50;;
59872;SDS011;50750;51.636;4.948;2023-04-06T06:36:01;13.30;;;8.70;;
59872;SDS011;50750;51.636;4.948;2023-04-06T06:38:28;11.80;;;8.00;;
59872;SDS011;50750;51.636;4.948;2023-04-06T06:40:54;11.20;;;7.40;;
59872;SDS011;50750;51.636;4.948;2023-04-06T06:43:21;11.50;;;7.40;;
59872;SDS011;50750;51.636;4.948;2023-04-06T06:45:48;11.50;;;7.70;;
59872;SDS011;50750;51.636;4.948;2023-04-06T06:48:14;11.00;;;7.20;;
59872;SDS011;50750;51.636;4.948;2023-04-06T06:50:41;10.40;;;7.10;;
59872;SDS011;50750;51.636;4.948;2023-04-06T06:53:08;11.80;;;7.60;;
59872;SDS011;50750;51.636;4.948;2023-04-06T06:55:34;10.20;;;7.40;;
59872;SDS011;50750;51.636;4.948;2023-04-06T06:58:01;10.00;;;6.80;;
59872;SDS011;50750;51.636;4.948;2023-04-06T07:00:28;10.10;;;6.70;;
59872;SDS011;50750;51.636;4.948;2023-04-06T07:02:54;11.80;;;7.30;;
59872;SDS011;50750;51.636;4.948;2023-04-06T07:05:21;9.00;;;6.50;;
59872;SDS011;50750;51.636;4.948;2023-04-06T07:07:48;9.20;;;6.70;;
59872;SDS011;50750;51.636;4.948;2023-04-06T07:10:14;9.10;;;6.70;;
59872;SDS011;50750;51.636;4.948;2023-04-06T07:12:41;9.30;;;6.60;;
59872;SDS011;50750;51.636;4.948;2023-04-06T07:15:08;12.50;;;7.40;;
59872;SDS011;50750;51.636;4.948;2023-04-06T07:17:35;9.20;;;6.60;;
59872;SDS011;50750;51.636;4.948;2023-04-06T07:20:02;10.40;;;6.90;;
59872;SDS011;50750;51.636;4.948;2023-04-06T07:22:29;9.10;;;6.20;;
59872;SDS011;50750;51.636;4.948;2023-04-06T07:24:55;8.90;;;6.50;;
59872;SDS011;50750;51.636;4.948;2023-04-06T07:27:22;9.40;;;6.50;;
59872;SDS011;50750;51.636;4.948;2023-04-06T07:29:48;8.90;;;6.10;;
59872;SDS011;50750;51.636;4.948;2023-04-06T07:32:15;9.90;;;6.60;;
59872;SDS011;50750;51.636;4.948;2023-04-06T07:34:42;8.40;;;5.90;;
59872;SDS011;50750;51.636;4.948;2023-04-06T07:37:08;9.70;;;6.40;;
59872;SDS011;50750;51.636;4.948;2023-04-06T07:39:35;9.30;;;5.90;;
59872;SDS011;50750;51.636;4.948;2023-04-06T07:42:01;11.30;;;5.90;;
59872;SDS011;50750;51.636;4.948;2023-04-06T07:44:28;8.60;;;5.80;;
59872;SDS011;50750;51.636;4.948;2023-04-06T07:46:55;9.00;;;5.80;;
59872;SDS011;50750;51.636;4.948;2023-04-06T07:49:22;9.00;;;6.10;;
59872;SDS011;50750;51.636;4.948;2023-04-06T07:51:49;9.60;;;6.20;;
59872;SDS011;50750;51.636;4.948;2023-04-06T07:54:15;8.10;;;5.70;;
59872;SDS011;50750;51.636;4.948;2023-04-06T07:56:42;9.40;;;6.40;;
59872;SDS011;50750;51.636;4.948;2023-04-06T07:59:08;7.70;;;5.50;;
59872;SDS011;50750;51.636;4.948;2023-04-06T08:01:37;10.40;;;6.70;;
59872;SDS011;50750;51.636;4.948;2023-04-06T08:04:05;8.40;;;5.60;;
59872;SDS011;50750;51.636;4.948;2023-04-06T08:06:32;9.00;;;6.20;;
59872;SDS011;50750;51.636;4.948;2023-04-06T08:08:59;7.90;;;5.70;;
59872;SDS011;50750;51.636;4.948;2023-04-06T08:11:25;8.80;;;6.00;;
59872;SDS011;50750;51.636;4.948;2023-04-06T08:13:53;8.40;;;6.00;;
59872;SDS011;50750;51.636;4.948;2023-04-06T08:16:22;9.20;;;5.70;;
59872;SDS011;50750;51.636;4.948;2023-04-06T08:18:48;7.10;;;5.10;;
59872;SDS011;50750;51.636;4.948;2023-04-06T08:21:15;9.20;;;5.60;;
59872;SDS011;50750;51.636;4.948;2023-04-06T08:23:42;8.00;;;5.60;;
59872;SDS011;50750;51.636;4.948;2023-04-06T08:26:08;8.30;;;5.70;;
59872;SDS011;50750;51.636;4.948;2023-04-06T08:28:35;9.00;;;5.50;;
59872;SDS011;50750;51.636;4.948;2023-04-06T08:31:05;8.30;;;5.80;;
59872;SDS011;50750;51.636;4.948;2023-04-06T08:33:35;9.30;;;5.80;;
59872;SDS011;50750;51.636;4.948;2023-04-06T08:36:12;8.60;;;5.90;;
59872;SDS011;50750;51.636;4.948;2023-04-06T08:38:40;10.20;;;6.30;;
59872;SDS011;50750;51.636;4.948;2023-04-06T08:41:12;8.60;;;6.40;;
59872;SDS011;50750;51.636;4.948;2023-04-06T08:46:15;10.00;;;5.80;;
59872;SDS011;50750;51.636;4.948;2023-04-06T08:48:42;8.60;;;5.40;;
59872;SDS011;50750;51.636;4.948;2023-04-06T08:51:09;8.30;;;5.90;;
59872;SDS011;50750;51.636;4.948;2023-04-06T08:53:36;8.20;;;5.90;;
59872;SDS011;50750;51.636;4.948;2023-04-06T08:56:04;10.70;;;5.90;;
59872;SDS011;50750;51.636;4.948;2023-04-06T08:58:34;8.30;;;6.50;;
59872;SDS011;50750;51.636;4.948;2023-04-06T09:01:05;8.70;;;5.70;;
59872;SDS011;50750;51.636;4.948;2023-04-06T09:03:37;8.40;;;5.50;;
59872;SDS011;50750;51.636;4.948;2023-04-06T09:06:06;8.60;;;6.10;;
59872;SDS011;50750;51.636;4.948;2023-04-06T09:08:34;8.30;;;5.80;;
59872;SDS011;50750;51.636;4.948;2023-04-06T09:11:02;8.10;;;5.80;;
59872;SDS011;50750;51.636;4.948;2023-04-06T09:13:29;7.80;;;5.20;;
59872;SDS011;50750;51.636;4.948;2023-04-06T09:16:03;8.10;;;5.00;;
59872;SDS011;50750;51.636;4.948;2023-04-06T09:18:32;8.00;;;5.30;;
59872;SDS011;50750;51.636;4.948;2023-04-06T09:21:04;6.80;;;5.00;;
59872;SDS011;50750;51.636;4.948;2023-04-06T09:23:32;8.20;;;4.80;;
59872;SDS011;50750;51.636;4.948;2023-04-06T09:26:15;8.20;;;5.60;;
59872;SDS011;50750;51.636;4.948;2023-04-06T09:28:47;7.40;;;5.00;;
59872;SDS011;50750;51.636;4.948;2023-04-06T09:31:17;7.20;;;4.60;;
59872;SDS011;50750;51.636;4.948;2023-04-06T09:33:49;8.00;;;4.70;;
59872;SDS011;50750;51.636;4.948;2023-04-06T09:36:16;7.10;;;4.90;;
59872;SDS011;50750;51.636;4.948;2023-04-06T09:38:55;7.20;;;4.70;;
59872;SDS011;50750;51.636;4.948;2023-04-06T09:44:03;6.90;;;4.50;;
59872;SDS011;50750;51.636;4.948;2023-04-06T09:46:34;8.10;;;4.40;;
59872;SDS011;50750;51.636;4.948;2023-04-06T09:49:04;7.30;;;4.90;;
59872;SDS011;50750;51.636;4.948;2023-04-06T09:51:38;8.00;;;4.50;;
59872;SDS011;50750;51.636;4.948;2023-04-06T09:54:18;6.90;;;4.40;;
59872;SDS011;50750;51.636;4.948;2023-04-06T09:56:47;6.90;;;4.50;;
59872;SDS011;50750;51.636;4.948;2023-04-06T10:02:18;5.50;;;4.20;;
59872;SDS011;50750;51.636;4.948;2023-04-06T10:05:08;6.00;;;3.70;;
59872;SDS011;50750;51.636;4.948;2023-04-06T10:07:39;6.80;;;3.80;;
59872;SDS011;50750;51.636;4.948;2023-04-06T10:10:07;6.30;;;4.00;;
59872;SDS011;50750;51.636;4.948;2023-04-06T10:12:36;5.70;;;3.80;;
59872;SDS011;50750;51.636;4.948;2023-04-06T10:15:04;5.40;;;3.80;;
59872;SDS011;50750;51.636;4.948;2023-04-06T10:17:31;5.40;;;3.40;;
59872;SDS011;50750;51.636;4.948;2023-04-06T10:20:09;5.70;;;3.60;;
59872;SDS011;50750;51.636;4.948;2023-04-06T10:25:11;5.10;;;3.70;;
59872;SDS011;50750;51.636;4.948;2023-04-06T10:27:37;6.00;;;3.90;;
59872;SDS011;50750;51.636;4.948;2023-04-06T10:30:05;5.50;;;3.30;;
59872;SDS011;50750;51.636;4.948;2023-04-06T10:32:33;5.40;;;3.60;;
59872;SDS011;50750;51.636;4.948;2023-04-06T10:35:19;5.60;;;3.50;;
59872;SDS011;50750;51.636;4.948;2023-04-06T10:37:50;6.20;;;3.70;;
59872;SDS011;50750;51.636;4.948;2023-04-06T10:40:27;4.50;;;3.30;;
59872;SDS011;50750;51.636;4.948;2023-04-06T10:42:55;5.30;;;3.30;;
59872;SDS011;50750;51.636;4.948;2023-04-06T10:45:23;6.30;;;3.40;;
59872;SDS011;50750;51.636;4.948;2023-04-06T10:47:52;5.90;;;3.70;;
59872;SDS011;50750;51.636;4.948;2023-04-06T10:50:20;4.90;;;3.10;;
59872;SDS011;50750;51.636;4.948;2023-04-06T10:52:47;5.10;;;3.40;;
59872;SDS011;50750;51.636;4.948;2023-04-06T10:55:24;6.50;;;3.20;;
59872;SDS011;50750;51.636;4.948;2023-04-06T10:57:52;5.40;;;3.40;;
59872;SDS011;50750;51.636;4.948;2023-04-06T11:00:20;6.00;;;3.30;;
59872;SDS011;50750;51.636;4.948;2023-04-06T11:02:47;5.40;;;3.50;;
59872;SDS011;50750;51.636;4.948;2023-04-06T11:05:14;4.70;;;3.20;;
59872;SDS011;50750;51.636;4.948;2023-04-06T11:07:41;5.50;;;3.10;;
59872;SDS011;50750;51.636;4.948;2023-04-06T11:10:08;5.40;;;3.40;;
59872;SDS011;50750;51.636;4.948;2023-04-06T11:12:35;5.00;;;3.20;;
59872;SDS011;50750;51.636;4.948;2023-04-06T11:15:02;4.90;;;3.40;;
59872;SDS011;50750;51.636;4.948;2023-04-06T11:17:36;3.90;;;3.00;;
59872;SDS011;50750;51.636;4.948;2023-04-06T11:20:03;5.00;;;3.30;;
59872;SDS011;50750;51.636;4.948;2023-04-06T11:22:36;5.30;;;3.30;;
59872;SDS011;50750;51.636;4.948;2023-04-06T11:25:06;5.90;;;3.50;;
59872;SDS011;50750;51.636;4.948;2023-04-06T11:27:34;6.00;;;3.60;;
59872;SDS011;50750;51.636;4.948;2023-04-06T11:30:02;5.50;;;3.40;;
59872;SDS011;50750;51.636;4.948;2023-04-06T11:32:29;4.00;;;3.00;;
59872;SDS011;50750;51.636;4.948;2023-04-06T11:34:57;5.20;;;2.90;;
59872;SDS011;50750;51.636;4.948;2023-04-06T11:37:26;4.60;;;3.10;;
59872;SDS011;50750;51.636;4.948;2023-04-06T11:39:54;4.50;;;3.20;;
59872;SDS011;50750;51.636;4.948;2023-04-06T11:42:24;6.50;;;3.50;;
59872;SDS011;50750;51.636;4.948;2023-04-06T11:44:55;5.90;;;3.10;;
59872;SDS011;50750;51.636;4.948;2023-04-06T11:47:30;5.50;;;3.10;;
59872;SDS011;50750;51.636;4.948;2023-04-06T11:50:07;4.80;;;3.40;;
59872;SDS011;50750;51.636;4.948;2023-04-06T11:52:41;5.20;;;3.30;;
59872;SDS011;50750;51.636;4.948;2023-04-06T11:55:12;5.80;;;3.40;;
59872;SDS011;50750;51.636;4.948;2023-04-06T11:57:41;5.10;;;3.00;;
59872;SDS011;50750;51.636;4.948;2023-04-06T12:00:08;4.80;;;3.40;;
59872;SDS011;50750;51.636;4.948;2023-04-06T12:02:36;4.90;;;3.10;;
59872;SDS011;50750;51.636;4.948;2023-04-06T12:05:04;4.90;;;3.00;;
59872;SDS011;50750;51.636;4.948;2023-04-06T12:07:32;5.60;;;3.30;;
59872;SDS011;50750;51.636;4.948;2023-04-06T12:10:00;5.00;;;3.20;;
59872;SDS011;50750;51.636;4.948;2023-04-06T12:12:28;5.90;;;3.40;;
59872;SDS011;50750;51.636;4.948;2023-04-06T12:14:55;6.40;;;3.20;;
59872;SDS011;50750;51.636;4.948;2023-04-06T12:17:23;4.20;;;2.90;;
59872;SDS011;50750;51.636;4.948;2023-04-06T12:19:50;5.10;;;3.30;;
59872;SDS011;50750;51.636;4.948;2023-04-06T12:22:17;5.30;;;3.00;;
59872;SDS011;50750;51.636;4.948;2023-04-06T12:24:44;5.30;;;3.50;;
59872;SDS011;50750;51.636;4.948;2023-04-06T12:27:10;5.40;;;3.20;;
59872;SDS011;50750;51.636;4.948;2023-04-06T12:29:37;5.60;;;3.50;;
59872;SDS011;50750;51.636;4.948;2023-04-06T12:32:04;5.60;;;3.70;;
59872;SDS011;50750;51.636;4.948;2023-04-06T12:34:32;5.00;;;3.40;;
59872;SDS011;50750;51.636;4.948;2023-04-06T12:36:59;4.90;;;3.30;;
59872;SDS011;50750;51.636;4.948;2023-04-06T12:39:26;6.20;;;3.20;;
59872;SDS011;50750;51.636;4.948;2023-04-06T12:41:53;4.90;;;3.20;;
59872;SDS011;50750;51.636;4.948;2023-04-06T12:44:21;5.80;;;3.50;;
59872;SDS011;50750;51.636;4.948;2023-04-06T12:46:48;4.60;;;3.20;;
59872;SDS011;50750;51.636;4.948;2023-04-06T12:49:14;6.30;;;3.60;;
59872;SDS011;50750;51.636;4.948;2023-04-06T12:51:43;5.40;;;3.10;;
59872;SDS011;50750;51.636;4.948;2023-04-06T12:54:10;5.30;;;3.50;;
59872;SDS011;50750;51.636;4.948;2023-04-06T12:56:38;4.60;;;3.10;;
59872;SDS011;50750;51.636;4.948;2023-04-06T12:59:04;5.60;;;3.10;;
59872;SDS011;50750;51.636;4.948;2023-04-06T13:01:31;5.20;;;3.20;;
59872;SDS011;50750;51.636;4.948;2023-04-06T13:03:59;4.70;;;3.20;;
59872;SDS011;50750;51.636;4.948;2023-04-06T13:06:25;4.50;;;2.90;;
59872;SDS011;50750;51.636;4.948;2023-04-06T13:11:22;5.40;;;3.60;;
59872;SDS011;50750;51.636;4.948;2023-04-06T13:13:50;4.90;;;3.00;;
59872;SDS011;50750;51.636;4.948;2023-04-06T13:16:16;4.90;;;2.90;;
59872;SDS011;50750;51.636;4.948;2023-04-06T13:18:43;5.10;;;3.20;;
59872;SDS011;50750;51.636;4.948;2023-04-06T13:21:12;4.60;;;3.10;;
59872;SDS011;50750;51.636;4.948;2023-04-06T13:23:40;5.30;;;3.20;;
59872;SDS011;50750;51.636;4.948;2023-04-06T13:26:07;4.50;;;3.10;;
59872;SDS011;50750;51.636;4.948;2023-04-06T13:28:34;4.70;;;2.90;;
59872;SDS011;50750;51.636;4.948;2023-04-06T13:31:03;4.70;;;3.10;;
59872;SDS011;50750;51.636;4.948;2023-04-06T13:33:31;4.50;;;3.40;;
59872;SDS011;50750;51.636;4.948;2023-04-06T13:35:58;4.30;;;3.00;;
59872;SDS011;50750;51.636;4.948;2023-04-06T13:40:56;5.00;;;3.20;;
59872;SDS011;50750;51.636;4.948;2023-04-06T13:43:22;4.90;;;3.50;;
59872;SDS011;50750;51.636;4.948;2023-04-06T13:45:52;5.40;;;3.30;;
59872;SDS011;50750;51.636;4.948;2023-04-06T13:48:21;5.50;;;3.40;;
59872;SDS011;50750;51.636;4.948;2023-04-06T13:50:48;4.40;;;2.90;;
59872;SDS011;50750;51.636;4.948;2023-04-06T13:53:14;5.40;;;3.20;;
59872;SDS011;50750;51.636;4.948;2023-04-06T13:55:41;4.30;;;3.10;;
59872;SDS011;50750;51.636;4.948;2023-04-06T13:58:07;5.70;;;3.30;;
59872;SDS011;50750;51.636;4.948;2023-04-06T14:00:34;4.90;;;3.30;;
59872;SDS011;50750;51.636;4.948;2023-04-06T14:03:01;4.90;;;3.20;;
59872;SDS011;50750;51.636;4.948;2023-04-06T14:05:31;4.90;;;3.30;;
59872;SDS011;50750;51.636;4.948;2023-04-06T14:07:59;5.00;;;3.40;;
59872;SDS011;50750;51.636;4.948;2023-04-06T14:10:25;3.80;;;2.80;;
59872;SDS011;50750;51.636;4.948;2023-04-06T14:12:53;5.30;;;3.30;;
59872;SDS011;50750;51.636;4.948;2023-04-06T14:15:20;5.40;;;3.10;;
59872;SDS011;50750;51.636;4.948;2023-04-06T14:17:48;4.60;;;3.10;;
59872;SDS011;50750;51.636;4.948;2023-04-06T14:20:15;4.30;;;2.70;;
59872;SDS011;50750;51.636;4.948;2023-04-06T14:22:41;4.20;;;3.00;;
59872;SDS011;50750;51.636;4.948;2023-04-06T14:25:11;4.70;;;3.00;;
59872;SDS011;50750;51.636;4.948;2023-04-06T14:27:38;5.60;;;3.30;;
59872;SDS011;50750;51.636;4.948;2023-04-06T14:30:05;4.60;;;2.90;;
59872;SDS011;50750;51.636;4.948;2023-04-06T14:32:33;5.30;;;3.00;;
59872;SDS011;50750;51.636;4.948;2023-04-06T14:34:59;4.90;;;3.40;;
59872;SDS011;50750;51.636;4.948;2023-04-06T14:37:26;5.00;;;3.10;;
59872;SDS011;50750;51.636;4.948;2023-04-06T14:39:53;5.10;;;3.10;;
59872;SDS011;50750;51.636;4.948;2023-04-06T14:42:19;4.70;;;3.00;;
59872;SDS011;50750;51.636;4.948;2023-04-06T14:44:46;4.70;;;3.00;;
59872;SDS011;50750;51.636;4.948;2023-04-06T14:47:14;4.40;;;2.80;;
59872;SDS011;50750;51.636;4.948;2023-04-06T14:49:46;4.90;;;3.20;;
59872;SDS011;50750;51.636;4.948;2023-04-06T14:52:15;5.10;;;3.10;;
59872;SDS011;50750;51.636;4.948;2023-04-06T14:54:42;4.50;;;2.90;;
59872;SDS011;50750;51.636;4.948;2023-04-06T14:57:08;4.00;;;2.90;;
59872;SDS011;50750;51.636;4.948;2023-04-06T14:59:35;3.80;;;2.70;;
59872;SDS011;50750;51.636;4.948;2023-04-06T15:02:02;4.70;;;2.60;;
59872;SDS011;50750;51.636;4.948;2023-04-06T15:04:29;3.80;;;2.70;;